sensor_id;sensor_type;location;lat;lon;timestamp;temperature;humidity
11025;DHT22;22890;51.820;8.682;2022-07-06T00:01:32;17.10;99.90
11025;DHT22;22890;51.820;8.682;2022-07-06T00:03:58;17.00;99.90
11025;DHT22;22890;51.820;8.682;2022-07-06T00:06:25;17.00;99.90
11025;DHT22;22890;51.820;8.682;2022-07-06T00:08:52;17.00;99.90
11025;DHT22;22890;51.820;8.682;2022-07-06T00:11:19;16.90;99.90
11025;DHT22;22890;51.820;8.682;2022-07-06T00:13:45;17.00;99.90
11025;DHT22;22890;51.820;8.682;2022-07-06T00:16:12;16.90;99.90
11025;DHT22;22890;51.820;8.682;2022-07-06T00:18:39;16.90;99.90
11025;DHT22;22890;51.820;8.682;2022-07-06T00:21:05;16.80;99.90
11025;DHT22;22890;51.820;8.682;2022-07-06T00:23:32;16.00;99.90
11025;DHT22;22890;51.820;8.682;2022-07-06T00:25:59;16.70;99.90
11025;DHT22;22890;51.820;8.682;2022-07-06T00:28:26;16.70;99.90
11025;DHT22;22890;51.820;8.682;2022-07-06T00:30:53;16.80;99.90
11025;DHT22;22890;51.820;8.682;2022-07-06T00:33:20;16.60;99.90
11025;DHT22;22890;51.820;8.682;2022-07-06T00:35:47;16.70;99.90
11025;DHT22;22890;51.820;8.682;2022-07-06T00:38:14;16.50;99.90
11025;DHT22;22890;51.820;8.682;2022-07-06T00:40:41;16.50;99.90
11025;DHT22;22890;51.820;8.682;2022-07-06T00:43:08;16.40;99.90
11025;DHT22;22890;51.820;8.682;2022-07-06T00:45:34;16.30;99.90
11025;DHT22;22890;51.820;8.682;2022-07-06T00:48:01;16.40;99.90
11025;DHT22;22890;51.820;8.682;2022-07-06T00:50:28;16.30;99.90
11025;DHT22;22890;51.820;8.682;2022-07-06T00:52:56;16.20;99.90
11025;DHT22;22890;51.820;8.682;2022-07-06T00:55:27;16.20;99.90
11025;DHT22;22890;51.820;8.682;2022-07-06T00:57:55;16.10;99.90
11025;DHT22;22890;51.820;8.682;2022-07-06T01:00:24;16.00;99.90
11025;DHT22;22890;51.820;8.682;2022-07-06T01:02:51;16.00;99.90
11025;DHT22;22890;51.820;8.682;2022-07-06T01:05:18;15.90;99.90
11025;DHT22;22890;51.820;8.682;2022-07-06T01:07:47;16.00;99.90
11025;DHT22;22890;51.820;8.682;2022-07-06T01:10:15;16.00;99.90
11025;DHT22;22890;51.820;8.682;2022-07-06T01:12:45;16.00;99.90
11025;DHT22;22890;51.820;8.682;2022-07-06T01:15:17;15.90;99.90
11025;DHT22;22890;51.820;8.682;2022-07-06T01:17:44;15.80;99.90
11025;DHT22;22890;51.820;8.682;2022-07-06T01:22:39;15.80;99.90
11025;DHT22;22890;51.820;8.682;2022-07-06T01:25:06;15.80;99.90
11025;DHT22;22890;51.820;8.682;2022-07-06T01:27:38;15.80;99.90
11025;DHT22;22890;51.820;8.682;2022-07-06T01:30:15;15.90;99.90
11025;DHT22;22890;51.820;8.682;2022-07-06T01:32:43;15.80;99.90
11025;DHT22;22890;51.820;8.682;2022-07-06T01:35:12;15.80;99.90
11025;DHT22;22890;51.820;8.682;2022-07-06T01:37:40;15.80;99.90
11025;DHT22;22890;51.820;8.682;2022-07-06T01:40:09;15.80;99.90
11025;DHT22;22890;51.820;8.682;2022-07-06T01:42:36;15.80;99.90
11025;DHT22;22890;51.820;8.682;2022-07-06T01:45:04;15.70;99.90
11025;DHT22;22890;51.820;8.682;2022-07-06T01:47:31;15.80;99.90
11025;DHT22;22890;51.820;8.682;2022-07-06T01:50:00;15.90;99.90
11025;DHT22;22890;51.820;8.682;2022-07-06T01:52:27;15.80;99.90
11025;DHT22;22890;51.820;8.682;2022-07-06T01:54:55;15.90;99.90
11025;DHT22;22890;51.820;8.682;2022-07-06T01:57:22;15.90;99.90
11025;DHT22;22890;51.820;8.682;2022-07-06T01:59:49;15.90;99.90
11025;DHT22;22890;51.820;8.682;2022-07-06T02:02:16;16.00;99.90
11025;DHT22;22890;51.820;8.682;2022-07-06T02:04:43;16.00;99.90
11025;DHT22;22890;51.820;8.682;2022-07-06T02:07:10;16.00;99.90
11025;DHT22;22890;51.820;8.682;2022-07-06T02:09:37;15.90;99.90
11025;DHT22;22890;51.820;8.682;2022-07-06T02:12:04;15.90;99.90
11025;DHT22;22890;51.820;8.682;2022-07-06T02:14:31;15.90;99.90
11025;DHT22;22890;51.820;8.682;2022-07-06T02:16:57;16.00;99.90
11025;DHT22;22890;51.820;8.682;2022-07-06T02:19:24;15.90;99.90
11025;DHT22;22890;51.820;8.682;2022-07-06T02:21:51;15.70;99.90
11025;DHT22;22890;51.820;8.682;2022-07-06T02:24:17;15.70;99.90
11025;DHT22;22890;51.820;8.682;2022-07-06T02:26:44;15.70;99.90
11025;DHT22;22890;51.820;8.682;2022-07-06T02:29:11;15.60;99.90
11025;DHT22;22890;51.820;8.682;2022-07-06T02:31:37;15.50;99.90
11025;DHT22;22890;51.820;8.682;2022-07-06T02:34:04;15.50;99.90
11025;DHT22;22890;51.820;8.682;2022-07-06T02:36:30;15.50;99.90
11025;DHT22;22890;51.820;8.682;2022-07-06T02:38:57;15.50;99.90
11025;DHT22;22890;51.820;8.682;2022-07-06T02:41:24;15.50;99.90
11025;DHT22;22890;51.820;8.682;2022-07-06T02:43:50;15.70;99.90
11025;DHT22;22890;51.820;8.682;2022-07-06T02:46:17;15.50;99.90
11025;DHT22;22890;51.820;8.682;2022-07-06T02:48:44;15.40;99.90
11025;DHT22;22890;51.820;8.682;2022-07-06T02:51:10;13.10;99.90
11025;DHT22;22890;51.820;8.682;2022-07-06T02:53:37;15.40;99.90
11025;DHT22;22890;51.820;8.682;2022-07-06T02:56:04;15.40;99.90
11025;DHT22;22890;51.820;8.682;2022-07-06T02:58:30;15.40;99.90
11025;DHT22;22890;51.820;8.682;2022-07-06T03:00:57;15.40;99.90
11025;DHT22;22890;51.820;8.682;2022-07-06T03:03:24;15.30;99.90
11025;DHT22;22890;51.820;8.682;2022-07-06T03:05:50;15.40;99.90
11025;DHT22;22890;51.820;8.682;2022-07-06T03:08:17;15.40;99.90
11025;DHT22;22890;51.820;8.682;2022-07-06T03:10:44;15.40;99.90
11025;DHT22;22890;51.820;8.682;2022-07-06T03:13:11;15.40;99.90
11025;DHT22;22890;51.820;8.682;2022-07-06T03:15:37;15.40;99.90
11025;DHT22;22890;51.820;8.682;2022-07-06T03:18:04;15.40;99.90
11025;DHT22;22890;51.820;8.682;2022-07-06T03:20:31;15.40;99.90
11025;DHT22;22890;51.820;8.682;2022-07-06T03:22:57;15.40;99.90
11025;DHT22;22890;51.820;8.682;2022-07-06T03:25:24;15.50;99.90
11025;DHT22;22890;51.820;8.682;2022-07-06T03:27:51;15.50;99.90
11025;DHT22;22890;51.820;8.682;2022-07-06T03:30:17;15.50;99.90
11025;DHT22;22890;51.820;8.682;2022-07-06T03:32:44;15.40;99.90
11025;DHT22;22890;51.820;8.682;2022-07-06T03:35:11;15.40;99.90
11025;DHT22;22890;51.820;8.682;2022-07-06T03:37:37;15.40;99.90
11025;DHT22;22890;51.820;8.682;2022-07-06T03:40:04;15.50;99.90
11025;DHT22;22890;51.820;8.682;2022-07-06T03:42:31;15.40;99.90
11025;DHT22;22890;51.820;8.682;2022-07-06T03:44:58;15.50;99.90
11025;DHT22;22890;51.820;8.682;2022-07-06T03:47:24;15.50;99.90
11025;DHT22;22890;51.820;8.682;2022-07-06T03:49:51;15.60;99.90
11025;DHT22;22890;51.820;8.682;2022-07-06T03:52:18;15.60;99.90
11025;DHT22;22890;51.820;8.682;2022-07-06T03:54:44;15.60;99.90
11025;DHT22;22890;51.820;8.682;2022-07-06T03:57:11;15.50;99.90
11025;DHT22;22890;51.820;8.682;2022-07-06T03:59:40;15.50;99.90
11025;DHT22;22890;51.820;8.682;2022-07-06T04:02:06;15.50;99.90
11025;DHT22;22890;51.820;8.682;2022-07-06T04:04:34;15.50;99.90
11025;DHT22;22890;51.820;8.682;2022-07-06T04:07:00;15.50;99.90
11025;DHT22;22890;51.820;8.682;2022-07-06T04:09:27;15.50;99.90
11025;DHT22;22890;51.820;8.682;2022-07-06T04:11:54;15.50;99.90
11025;DHT22;22890;51.820;8.682;2022-07-06T04:14:20;15.60;99.90
11025;DHT22;22890;51.820;8.682;2022-07-06T04:16:47;15.50;99.90
11025;DHT22;22890;51.820;8.682;2022-07-06T04:19:14;15.50;99.90
11025;DHT22;22890;51.820;8.682;2022-07-06T04:21:41;15.40;99.90
11025;DHT22;22890;51.820;8.682;2022-07-06T04:24:07;15.40;99.90
11025;DHT22;22890;51.820;8.682;2022-07-06T04:26:35;15.40;99.90
11025;DHT22;22890;51.820;8.682;2022-07-06T04:29:01;15.40;99.90
11025;DHT22;22890;51.820;8.682;2022-07-06T04:31:28;15.40;99.90
11025;DHT22;22890;51.820;8.682;2022-07-06T04:33:55;15.40;99.90
11025;DHT22;22890;51.820;8.682;2022-07-06T04:36:21;15.50;99.90
11025;DHT22;22890;51.820;8.682;2022-07-06T04:38:48;15.50;99.90
11025;DHT22;22890;51.820;8.682;2022-07-06T04:41:15;15.50;99.90
11025;DHT22;22890;51.820;8.682;2022-07-06T04:43:41;15.50;99.90
11025;DHT22;22890;51.820;8.682;2022-07-06T04:46:10;15.50;99.90
11025;DHT22;22890;51.820;8.682;2022-07-06T04:48:36;15.50;99.90
11025;DHT22;22890;51.820;8.682;2022-07-06T04:51:05;15.50;99.90
11025;DHT22;22890;51.820;8.682;2022-07-06T04:53:32;15.60;99.90
11025;DHT22;22890;51.820;8.682;2022-07-06T04:55:59;15.70;99.90
11025;DHT22;22890;51.820;8.682;2022-07-06T04:58:25;15.70;99.90
11025;DHT22;22890;51.820;8.682;2022-07-06T05:00:52;15.70;99.90
11025;DHT22;22890;51.820;8.682;2022-07-06T05:03:20;15.80;99.90
11025;DHT22;22890;51.820;8.682;2022-07-06T05:05:47;15.70;99.90
11025;DHT22;22890;51.820;8.682;2022-07-06T05:08:13;15.90;99.90
11025;DHT22;22890;51.820;8.682;2022-07-06T05:10:40;15.80;99.90
11025;DHT22;22890;51.820;8.682;2022-07-06T05:13:07;15.90;99.90
11025;DHT22;22890;51.820;8.682;2022-07-06T05:15:33;16.30;99.90
11025;DHT22;22890;51.820;8.682;2022-07-06T05:18:00;16.30;99.90
11025;DHT22;22890;51.820;8.682;2022-07-06T05:20:27;16.40;99.90
11025;DHT22;22890;51.820;8.682;2022-07-06T05:22:53;16.50;99.90
11025;DHT22;22890;51.820;8.682;2022-07-06T05:25:20;16.90;99.90
11025;DHT22;22890;51.820;8.682;2022-07-06T05:27:47;16.90;99.90
11025;DHT22;22890;51.820;8.682;2022-07-06T05:30:14;17.20;99.90
11025;DHT22;22890;51.820;8.682;2022-07-06T05:32:42;17.40;99.90
11025;DHT22;22890;51.820;8.682;2022-07-06T05:35:09;17.50;99.90
11025;DHT22;22890;51.820;8.682;2022-07-06T05:37:56;17.70;99.90
11025;DHT22;22890;51.820;8.682;2022-07-06T05:40:22;17.80;99.90
11025;DHT22;22890;51.820;8.682;2022-07-06T05:42:49;17.90;99.90
11025;DHT22;22890;51.820;8.682;2022-07-06T05:45:15;17.80;99.90
11025;DHT22;22890;51.820;8.682;2022-07-06T05:47:42;17.70;99.90
11025;DHT22;22890;51.820;8.682;2022-07-06T05:50:27;17.80;99.90
11025;DHT22;22890;51.820;8.682;2022-07-06T05:53:01;17.90;99.90
11025;DHT22;22890;51.820;8.682;2022-07-06T05:55:41;18.00;99.90
11025;DHT22;22890;51.820;8.682;2022-07-06T05:58:07;18.10;99.90
11025;DHT22;22890;51.820;8.682;2022-07-06T06:00:34;18.20;99.90
11025;DHT22;22890;51.820;8.682;2022-07-06T06:03:01;18.30;99.90
11025;DHT22;22890;51.820;8.682;2022-07-06T06:05:27;18.40;99.90
11025;DHT22;22890;51.820;8.682;2022-07-06T06:07:54;18.50;99.90
11025;DHT22;22890;51.820;8.682;2022-07-06T06:10:21;18.60;99.90
11025;DHT22;22890;51.820;8.682;2022-07-06T06:12:51;18.70;99.90
11025;DHT22;22890;51.820;8.682;2022-07-06T06:15:17;18.70;99.90
11025;DHT22;22890;51.820;8.682;2022-07-06T06:17:44;18.80;99.90
11025;DHT22;22890;51.820;8.682;2022-07-06T06:20:13;18.80;99.90
11025;DHT22;22890;51.820;8.682;2022-07-06T06:22:50;18.80;99.90
11025;DHT22;22890;51.820;8.682;2022-07-06T06:25:19;17.90;99.90
11025;DHT22;22890;51.820;8.682;2022-07-06T06:27:46;18.70;99.90
11025;DHT22;22890;51.820;8.682;2022-07-06T06:30:13;18.70;99.90
11025;DHT22;22890;51.820;8.682;2022-07-06T06:32:40;18.70;99.90
11025;DHT22;22890;51.820;8.682;2022-07-06T06:35:07;18.60;99.90
11025;DHT22;22890;51.820;8.682;2022-07-06T06:37:34;18.50;99.90
11025;DHT22;22890;51.820;8.682;2022-07-06T06:40:01;18.50;99.90
11025;DHT22;22890;51.820;8.682;2022-07-06T06:42:28;18.40;99.90
11025;DHT22;22890;51.820;8.682;2022-07-06T06:44:54;18.40;99.90
11025;DHT22;22890;51.820;8.682;2022-07-06T06:47:21;18.30;99.90
11025;DHT22;22890;51.820;8.682;2022-07-06T06:49:48;18.30;99.90
11025;DHT22;22890;51.820;8.682;2022-07-06T06:52:14;18.30;99.90
11025;DHT22;22890;51.820;8.682;2022-07-06T06:55:01;18.20;99.90
11025;DHT22;22890;51.820;8.682;2022-07-06T06:57:28;18.20;99.90
11025;DHT22;22890;51.820;8.682;2022-07-06T06:59:56;18.30;99.90
11025;DHT22;22890;51.820;8.682;2022-07-06T07:02:24;18.30;99.90
11025;DHT22;22890;51.820;8.682;2022-07-06T07:04:50;18.30;99.90
11025;DHT22;22890;51.820;8.682;2022-07-06T07:07:17;18.40;99.90
11025;DHT22;22890;51.820;8.682;2022-07-06T07:09:43;18.40;99.90
11025;DHT22;22890;51.820;8.682;2022-07-06T07:12:10;18.50;99.90
11025;DHT22;22890;51.820;8.682;2022-07-06T07:14:38;18.50;99.90
11025;DHT22;22890;51.820;8.682;2022-07-06T07:17:05;18.40;99.90
11025;DHT22;22890;51.820;8.682;2022-07-06T07:19:31;18.50;99.90
11025;DHT22;22890;51.820;8.682;2022-07-06T07:21:58;18.40;99.90
11025;DHT22;22890;51.820;8.682;2022-07-06T07:24:24;18.30;99.90
11025;DHT22;22890;51.820;8.682;2022-07-06T07:26:51;18.30;99.90
11025;DHT22;22890;51.820;8.682;2022-07-06T07:29:17;18.30;99.90
11025;DHT22;22890;51.820;8.682;2022-07-06T07:31:44;18.30;99.90
11025;DHT22;22890;51.820;8.682;2022-07-06T07:34:11;18.20;99.90
11025;DHT22;22890;51.820;8.682;2022-07-06T07:36:37;18.20;99.90
11025;DHT22;22890;51.820;8.682;2022-07-06T07:39:04;16.60;99.90
11025;DHT22;22890;51.820;8.682;2022-07-06T07:41:31;18.30;99.90
11025;DHT22;22890;51.820;8.682;2022-07-06T07:43:57;18.30;99.90
11025;DHT22;22890;51.820;8.682;2022-07-06T07:46:24;18.20;99.90
11025;DHT22;22890;51.820;8.682;2022-07-06T07:48:51;18.20;99.90
11025;DHT22;22890;51.820;8.682;2022-07-06T07:51:17;18.30;99.90
11025;DHT22;22890;51.820;8.682;2022-07-06T07:53:45;18.40;99.90
11025;DHT22;22890;51.820;8.682;2022-07-06T07:56:12;18.50;99.90
11025;DHT22;22890;51.820;8.682;2022-07-06T07:58:39;18.40;99.90
11025;DHT22;22890;51.820;8.682;2022-07-06T08:01:05;18.40;99.90
11025;DHT22;22890;51.820;8.682;2022-07-06T08:03:32;18.40;99.90
11025;DHT22;22890;51.820;8.682;2022-07-06T08:05:59;18.40;99.90
11025;DHT22;22890;51.820;8.682;2022-07-06T08:08:26;18.40;99.90
11025;DHT22;22890;51.820;8.682;2022-07-06T08:10:53;18.40;99.90
11025;DHT22;22890;51.820;8.682;2022-07-06T08:13:40;18.50;99.90
11025;DHT22;22890;51.820;8.682;2022-07-06T08:16:07;18.60;99.90
11025;DHT22;22890;51.820;8.682;2022-07-06T08:18:35;18.60;99.90
11025;DHT22;22890;51.820;8.682;2022-07-06T08:21:03;18.60;99.90
11025;DHT22;22890;51.820;8.682;2022-07-06T08:23:49;18.70;99.90
11025;DHT22;22890;51.820;8.682;2022-07-06T08:26:16;18.80;99.90
11025;DHT22;22890;51.820;8.682;2022-07-06T08:28:43;18.90;99.90
11025;DHT22;22890;51.820;8.682;2022-07-06T08:31:10;19.00;99.90
11025;DHT22;22890;51.820;8.682;2022-07-06T08:33:57;19.00;99.50
11025;DHT22;22890;51.820;8.682;2022-07-06T08:36:24;18.90;99.90
11025;DHT22;22890;51.820;8.682;2022-07-06T08:38:50;18.80;98.80
11025;DHT22;22890;51.820;8.682;2022-07-06T08:41:21;18.70;99.20
11025;DHT22;22890;51.820;8.682;2022-07-06T08:43:52;18.80;99.40
11025;DHT22;22890;51.820;8.682;2022-07-06T08:46:20;18.70;99.30
11025;DHT22;22890;51.820;8.682;2022-07-06T08:48:48;18.70;99.40
11025;DHT22;22890;51.820;8.682;2022-07-06T08:51:15;18.70;99.50
11025;DHT22;22890;51.820;8.682;2022-07-06T08:53:42;18.80;99.30
11025;DHT22;22890;51.820;8.682;2022-07-06T08:56:09;18.90;99.10
11025;DHT22;22890;51.820;8.682;2022-07-06T08:58:36;19.00;99.20
11025;DHT22;22890;51.820;8.682;2022-07-06T09:01:03;19.10;98.60
11025;DHT22;22890;51.820;8.682;2022-07-06T09:03:30;19.00;98.30
11025;DHT22;22890;51.820;8.682;2022-07-06T09:06:01;19.00;98.50
11025;DHT22;22890;51.820;8.682;2022-07-06T09:08:29;19.00;98.50
11025;DHT22;22890;51.820;8.682;2022-07-06T09:10:57;19.00;98.40
11025;DHT22;22890;51.820;8.682;2022-07-06T09:13:23;19.00;98.20
11025;DHT22;22890;51.820;8.682;2022-07-06T09:15:51;19.20;98.30
11025;DHT22;22890;51.820;8.682;2022-07-06T09:18:36;19.30;97.80
11025;DHT22;22890;51.820;8.682;2022-07-06T09:21:05;19.30;96.80
11025;DHT22;22890;51.820;8.682;2022-07-06T09:23:32;19.40;97.10
11025;DHT22;22890;51.820;8.682;2022-07-06T09:26:03;19.50;96.80
11025;DHT22;22890;51.820;8.682;2022-07-06T09:28:43;19.50;96.80
11025;DHT22;22890;51.820;8.682;2022-07-06T09:31:10;19.60;96.20
11025;DHT22;22890;51.820;8.682;2022-07-06T09:33:55;19.50;96.10
11025;DHT22;22890;51.820;8.682;2022-07-06T09:39:18;19.30;95.60
11025;DHT22;22890;51.820;8.682;2022-07-06T09:41:52;19.30;95.80
11025;DHT22;22890;51.820;8.682;2022-07-06T09:44:23;19.30;96.00
11025;DHT22;22890;51.820;8.682;2022-07-06T09:46:51;19.20;96.10
11025;DHT22;22890;51.820;8.682;2022-07-06T09:49:19;19.20;96.30
11025;DHT22;22890;51.820;8.682;2022-07-06T09:51:49;19.20;96.30
11025;DHT22;22890;51.820;8.682;2022-07-06T09:54:16;19.20;96.10
11025;DHT22;22890;51.820;8.682;2022-07-06T09:56:45;19.10;96.00
11025;DHT22;22890;51.820;8.682;2022-07-06T09:59:19;19.10;96.00
11025;DHT22;22890;51.820;8.682;2022-07-06T10:01:51;19.00;96.00
11025;DHT22;22890;51.820;8.682;2022-07-06T10:04:18;19.00;96.20
11025;DHT22;22890;51.820;8.682;2022-07-06T10:06:47;19.00;95.70
11025;DHT22;22890;51.820;8.682;2022-07-06T10:09:15;18.90;95.80
11025;DHT22;22890;51.820;8.682;2022-07-06T10:11:55;18.90;95.90
11025;DHT22;22890;51.820;8.682;2022-07-06T10:14:33;18.70;96.10
11025;DHT22;22890;51.820;8.682;2022-07-06T10:17:01;18.70;96.30
11025;DHT22;22890;51.820;8.682;2022-07-06T10:19:29;18.60;96.30
11025;DHT22;22890;51.820;8.682;2022-07-06T10:21:58;18.50;96.40
11025;DHT22;22890;51.820;8.682;2022-07-06T10:24:27;18.50;96.50
11025;DHT22;22890;51.820;8.682;2022-07-06T10:26:55;18.40;96.60
11025;DHT22;22890;51.820;8.682;2022-07-06T10:29:21;18.40;96.80
11025;DHT22;22890;51.820;8.682;2022-07-06T10:31:50;18.50;97.10
11025;DHT22;22890;51.820;8.682;2022-07-06T10:34:18;18.50;97.30
11025;DHT22;22890;51.820;8.682;2022-07-06T10:36:52;18.60;97.50
11025;DHT22;22890;51.820;8.682;2022-07-06T10:39:35;18.60;97.70
11025;DHT22;22890;51.820;8.682;2022-07-06T10:42:43;18.60;97.90
11025;DHT22;22890;51.820;8.682;2022-07-06T10:45:11;18.70;98.00
11025;DHT22;22890;51.820;8.682;2022-07-06T10:47:41;18.80;97.90
11025;DHT22;22890;51.820;8.682;2022-07-06T10:50:08;18.70;97.80
11025;DHT22;22890;51.820;8.682;2022-07-06T10:52:49;18.80;97.90
11025;DHT22;22890;51.820;8.682;2022-07-06T10:55:28;18.80;97.80
11025;DHT22;22890;51.820;8.682;2022-07-06T10:57:56;18.90;97.80
11025;DHT22;22890;51.820;8.682;2022-07-06T11:00:23;18.90;97.80
11025;DHT22;22890;51.820;8.682;2022-07-06T11:02:49;18.90;97.70
11025;DHT22;22890;51.820;8.682;2022-07-06T11:05:42;18.80;97.80
11025;DHT22;22890;51.820;8.682;2022-07-06T11:09:00;18.80;97.80
11025;DHT22;22890;51.820;8.682;2022-07-06T11:14:11;18.60;97.90
11025;DHT22;22890;51.820;8.682;2022-07-06T11:19:18;18.60;97.70
11025;DHT22;22890;51.820;8.682;2022-07-06T11:21:58;18.60;97.70
11025;DHT22;22890;51.820;8.682;2022-07-06T11:24:33;18.70;97.80
11025;DHT22;22890;51.820;8.682;2022-07-06T11:27:01;18.70;97.90
11025;DHT22;22890;51.820;8.682;2022-07-06T11:29:28;18.70;97.90
11025;DHT22;22890;51.820;8.682;2022-07-06T11:31:57;18.70;97.80
11025;DHT22;22890;51.820;8.682;2022-07-06T11:34:27;18.60;97.80
11025;DHT22;22890;51.820;8.682;2022-07-06T11:37:07;18.60;98.00
11025;DHT22;22890;51.820;8.682;2022-07-06T11:39:39;18.60;98.10
11025;DHT22;22890;51.820;8.682;2022-07-06T11:42:14;18.70;98.00
11025;DHT22;22890;51.820;8.682;2022-07-06T11:44:42;18.70;98.10
11025;DHT22;22890;51.820;8.682;2022-07-06T11:47:10;18.70;98.10
11025;DHT22;22890;51.820;8.682;2022-07-06T11:49:39;18.90;98.20
11025;DHT22;22890;51.820;8.682;2022-07-06T11:52:15;19.00;97.90
11025;DHT22;22890;51.820;8.682;2022-07-06T11:54:42;19.00;97.20
11025;DHT22;22890;51.820;8.682;2022-07-06T11:57:11;19.00;97.30
11025;DHT22;22890;51.820;8.682;2022-07-06T11:59:39;19.10;97.50
11025;DHT22;22890;51.820;8.682;2022-07-06T12:02:10;19.30;97.40
11025;DHT22;22890;51.820;8.682;2022-07-06T12:04:40;19.30;96.90
11025;DHT22;22890;51.820;8.682;2022-07-06T12:07:08;19.40;96.90
11025;DHT22;22890;51.820;8.682;2022-07-06T12:09:37;19.40;96.10
11025;DHT22;22890;51.820;8.682;2022-07-06T12:12:05;19.40;95.90
11025;DHT22;22890;51.820;8.682;2022-07-06T12:14:34;19.50;96.10
11025;DHT22;22890;51.820;8.682;2022-07-06T12:17:07;19.60;95.80
11025;DHT22;22890;51.820;8.682;2022-07-06T12:19:35;19.70;95.30
11025;DHT22;22890;51.820;8.682;2022-07-06T12:22:03;19.70;95.10
11025;DHT22;22890;51.820;8.682;2022-07-06T12:24:31;19.70;95.10
11025;DHT22;22890;51.820;8.682;2022-07-06T12:29:38;19.90;95.30
11025;DHT22;22890;51.820;8.682;2022-07-06T12:32:05;20.00;95.30
11025;DHT22;22890;51.820;8.682;2022-07-06T12:34:32;20.10;95.40
11025;DHT22;22890;51.820;8.682;2022-07-06T12:37:10;20.20;95.40
11025;DHT22;22890;51.820;8.682;2022-07-06T12:39:45;20.30;95.30
11025;DHT22;22890;51.820;8.682;2022-07-06T12:42:17;20.40;95.40
11025;DHT22;22890;51.820;8.682;2022-07-06T12:44:48;20.50;95.40
11025;DHT22;22890;51.820;8.682;2022-07-06T12:47:23;20.70;95.20
11025;DHT22;22890;51.820;8.682;2022-07-06T12:50:10;20.80;94.60
11025;DHT22;22890;51.820;8.682;2022-07-06T12:52:38;21.60;93.60
11025;DHT22;22890;51.820;8.682;2022-07-06T12:55:06;20.70;93.60
11025;DHT22;22890;51.820;8.682;2022-07-06T12:57:48;20.80;93.70
11025;DHT22;22890;51.820;8.682;2022-07-06T13:00:16;20.90;92.60
11025;DHT22;22890;51.820;8.682;2022-07-06T13:02:47;20.80;92.80
11025;DHT22;22890;51.820;8.682;2022-07-06T13:05:35;20.80;92.50
11025;DHT22;22890;51.820;8.682;2022-07-06T13:08:03;20.80;92.70
11025;DHT22;22890;51.820;8.682;2022-07-06T13:10:30;20.80;92.60
11025;DHT22;22890;51.820;8.682;2022-07-06T13:13:01;20.90;92.40
11025;DHT22;22890;51.820;8.682;2022-07-06T13:15:28;20.90;91.80
11025;DHT22;22890;51.820;8.682;2022-07-06T13:17:55;21.00;92.00
11025;DHT22;22890;51.820;8.682;2022-07-06T13:20:21;21.00;91.80
11025;DHT22;22890;51.820;8.682;2022-07-06T13:22:48;19.30;91.00
11025;DHT22;22890;51.820;8.682;2022-07-06T13:25:15;21.10;91.80
11025;DHT22;22890;51.820;8.682;2022-07-06T13:27:41;21.10;91.80
11025;DHT22;22890;51.820;8.682;2022-07-06T13:30:08;21.20;92.00
11025;DHT22;22890;51.820;8.682;2022-07-06T13:32:36;21.30;91.70
11025;DHT22;22890;51.820;8.682;2022-07-06T13:35:03;21.40;91.60
11025;DHT22;22890;51.820;8.682;2022-07-06T13:37:30;21.40;91.50
11025;DHT22;22890;51.820;8.682;2022-07-06T13:39:57;21.50;91.50
11025;DHT22;22890;51.820;8.682;2022-07-06T13:42:23;21.50;91.50
11025;DHT22;22890;51.820;8.682;2022-07-06T13:44:50;21.80;91.50
11025;DHT22;22890;51.820;8.682;2022-07-06T13:47:16;21.50;91.30
11025;DHT22;22890;51.820;8.682;2022-07-06T13:49:43;21.50;90.70
11025;DHT22;22890;51.820;8.682;2022-07-06T13:52:13;21.30;90.80
11025;DHT22;22890;51.820;8.682;2022-07-06T13:54:40;21.40;91.00
11025;DHT22;22890;51.820;8.682;2022-07-06T13:57:07;21.50;90.80
11025;DHT22;22890;51.820;8.682;2022-07-06T13:59:33;21.60;90.40
11025;DHT22;22890;51.820;8.682;2022-07-06T14:02:00;21.70;90.70
11025;DHT22;22890;51.820;8.682;2022-07-06T14:04:27;21.80;90.60
11025;DHT22;22890;51.820;8.682;2022-07-06T14:06:54;21.90;90.00
11025;DHT22;22890;51.820;8.682;2022-07-06T14:09:21;21.90;89.30
11025;DHT22;22890;51.820;8.682;2022-07-06T14:11:47;22.00;89.20
11025;DHT22;22890;51.820;8.682;2022-07-06T14:14:14;22.00;88.70
11025;DHT22;22890;51.820;8.682;2022-07-06T14:16:41;21.90;88.50
11025;DHT22;22890;51.820;8.682;2022-07-06T14:19:08;21.80;88.60
11025;DHT22;22890;51.820;8.682;2022-07-06T14:21:35;21.90;88.90
11025;DHT22;22890;51.820;8.682;2022-07-06T14:24:02;21.80;88.50
11025;DHT22;22890;51.820;8.682;2022-07-06T14:26:29;21.90;89.10
11025;DHT22;22890;51.820;8.682;2022-07-06T14:28:55;22.00;89.50
11025;DHT22;22890;51.820;8.682;2022-07-06T14:31:22;22.10;89.20
11025;DHT22;22890;51.820;8.682;2022-07-06T14:33:49;22.10;89.00
11025;DHT22;22890;51.820;8.682;2022-07-06T14:36:16;22.10;89.20
11025;DHT22;22890;51.820;8.682;2022-07-06T14:38:43;22.10;89.20
11025;DHT22;22890;51.820;8.682;2022-07-06T14:41:10;22.10;88.20
11025;DHT22;22890;51.820;8.682;2022-07-06T14:43:36;22.00;88.10
11025;DHT22;22890;51.820;8.682;2022-07-06T14:46:04;22.00;88.80
11025;DHT22;22890;51.820;8.682;2022-07-06T14:48:31;22.10;89.00
11025;DHT22;22890;51.820;8.682;2022-07-06T14:50:58;22.10;88.30
11025;DHT22;22890;51.820;8.682;2022-07-06T14:53:24;22.00;88.50
11025;DHT22;22890;51.820;8.682;2022-07-06T14:55:52;22.00;88.40
11025;DHT22;22890;51.820;8.682;2022-07-06T14:58:19;21.90;88.40
11025;DHT22;22890;51.820;8.682;2022-07-06T15:00:46;22.00;89.00
11025;DHT22;22890;51.820;8.682;2022-07-06T15:03:21;22.00;87.60
11025;DHT22;22890;51.820;8.682;2022-07-06T15:05:48;22.00;88.00
11025;DHT22;22890;51.820;8.682;2022-07-06T15:08:15;22.00;87.90
11025;DHT22;22890;51.820;8.682;2022-07-06T15:10:42;22.10;87.50
11025;DHT22;22890;51.820;8.682;2022-07-06T15:13:09;22.20;87.30
11025;DHT22;22890;51.820;8.682;2022-07-06T15:15:36;22.20;87.00
11025;DHT22;22890;51.820;8.682;2022-07-06T15:18:23;22.20;87.20
11025;DHT22;22890;51.820;8.682;2022-07-06T15:20:50;22.20;87.30
11025;DHT22;22890;51.820;8.682;2022-07-06T15:23:17;22.10;87.60
11025;DHT22;22890;51.820;8.682;2022-07-06T15:25:43;22.20;88.00
11025;DHT22;22890;51.820;8.682;2022-07-06T15:28:16;22.20;88.20
11025;DHT22;22890;51.820;8.682;2022-07-06T15:30:46;22.20;88.40
11025;DHT22;22890;51.820;8.682;2022-07-06T15:33:12;22.30;88.10
11025;DHT22;22890;51.820;8.682;2022-07-06T15:35:39;22.20;86.60
11025;DHT22;22890;51.820;8.682;2022-07-06T15:38:06;22.20;86.60
11025;DHT22;22890;51.820;8.682;2022-07-06T15:40:33;22.10;86.20
11025;DHT22;22890;51.820;8.682;2022-07-06T15:43:05;22.10;86.40
11025;DHT22;22890;51.820;8.682;2022-07-06T15:45:32;22.10;86.70
11025;DHT22;22890;51.820;8.682;2022-07-06T15:47:58;22.10;86.30
11025;DHT22;22890;51.820;8.682;2022-07-06T15:50:25;22.00;86.70
11025;DHT22;22890;51.820;8.682;2022-07-06T15:52:51;22.10;87.80